Metar Aviation Weather Data KPWM

72°F Temp
68°F Dewpoint
% Humidity
Temperature
16 MPH
26 KM/H
14 KTS
160°
South South
East

Wind Speed
Mostly Cloudy
Conditions
Pressure 1016.22 (hPa) - 30.01 (in)
Visibility 9.9 (mi) - 16 (km)

Current Conditions
KPWM
Metar :KPWM 241851Z 16014G24KT 10SM BKN009 BKN021 22/20 A3001 RMK AO2 PK WND 16028/1810 SLP161 T02170200
Fri 24th September 14:51 pm

  Metar Aviation API Data Provided by https://www.checkwx.com/ PHP scripts by weather34.com ©2021